หน้าหลัก
METAR-TAF:

METAR-TAF

ท่าอากาศยาน :

Monbetsu, ญี่ปุ่น

ละติจูด: 44-15N, ลองจิจูด: 143-32E, ความสูง: 6 ม.

การสังเกตสภาพอากาศปัจจุบัน

รายงานได้ทำขึ้นเมื่อ 45 นาทีที่แล้ว ณ เวลา 03:00 UTC
ลม 6 นอตจากตะวันออก
อุณหภูมิ 27°C
ความชื้น 62%
ความกดอากาศ 1005 hPa
ทัศนวิสัย 10 กม. หรือมากกว่า
ไม่มีเมฆต่ำกว่า 1,500 ม. และไม่มีเมฆคิวมูโลนิมบัส

METAR: RJEB 190300Z 08006KT CAVOK 27/19 Q1005

เวลา: 12:45 (03:45 UTC)


TAF: หายไป

สังเกตการณ์สภาพอากาศและพยากรณ์อากาศของสนามบินมากกว่า 4000 แห่ง (รายงาน METAR และ TAF).

สถานีที่ดูได้จะแสดงไว้ด้วยจุดสีเหลืองและสีแดงบนแผนที่.

เลื่อนเมาส์ไปเหนือจุดเพื่อดูชื่อสถานี.

แล้วคลิกเพื่อดูสังเกตการณ์และการพยากรณ์สภาพอากาศ.

ในการเปลี่ยนแผนที่: คลิกที่ปุ่มสีเขียวที่มีกากบาทสีดำเพื่อซูมเข้า; ที่ปุ่มสีเขียวที่มีขีดเพื่อซูมออก; หรือที่ลูกศรสีเขียวเพื่อไปยังแผนที่ที่อยู่ติดกัน.


METAR-TAF: